EGLC/LCY METAR and TAF weather

Enter ICAO airport designator
Station Type Date Time Source
EGLC METAR 2020/02/20 23:50 UTC NOAA

EGLC 202350Z AUTO 25012KT 9999 NCD 05/00 Q1022


Station Type Date Time Source
EGLC Decoded METAR 2020/02/20 23:50 UTC NOAA

London City Airport, United Kingdom (EGLC) 51-30N 000-30W
Feb 20, 2020 - 06:50 PM EST / 2020.02.20 2350 UTC
Wind: from the WSW (250 degrees) at 14 MPH (12 KT):0
Visibility: greater than 7 mile(s):0
Temperature: 41 F (5 C)
Dew Point: 32 F (0 C)
Relative Humidity: 70%
Pressure (altimeter): 30.18 in. Hg (1022 hPa)
ob: EGLC 202350Z AUTO 25012KT 9999 NCD 05/00 Q1022
cycle: 0

Station Type Date Time Source
EGLC TAF 2018/10/15 21:30 UTC NOAA

TAF EGLC 152119Z 1521/1621 CNL

Example: see airport list